createdAt,value
2022-11-14T00:00:30.821Z,53.00
2022-11-14T00:03:35.377Z,53.05
2022-11-14T00:06:40.060Z,53.19
2022-11-14T00:09:44.828Z,53.22
2022-11-14T00:12:49.564Z,53.06
2022-11-14T00:15:54.507Z,52.88
2022-11-14T00:18:59.211Z,53.15
2022-11-14T00:22:03.710Z,53.23
2022-11-14T00:25:08.462Z,53.23
2022-11-14T00:28:13.449Z,53.24
2022-11-14T00:31:18.310Z,53.16
2022-11-14T00:34:23.333Z,53.26
2022-11-14T00:37:28.399Z,53.18
2022-11-14T00:40:33.043Z,53.15
2022-11-14T00:43:37.726Z,53.24
2022-11-14T00:46:42.647Z,53.39
2022-11-14T00:49:47.644Z,53.36
2022-11-14T00:52:52.411Z,53.23
2022-11-14T00:55:57.334Z,53.37
2022-11-14T00:59:01.873Z,53.03
2022-11-14T01:02:06.642Z,53.28
2022-11-14T01:05:11.149Z,53.15
2022-11-14T01:08:18.232Z,52.78
2022-11-14T01:11:23.553Z,53.18
2022-11-14T01:14:28.136Z,53.14
2022-11-14T01:17:32.843Z,53.44
2022-11-14T01:20:44.305Z,53.12
2022-11-14T01:23:49.134Z,53.17
2022-11-14T01:26:56.998Z,53.47
2022-11-14T01:30:01.700Z,53.26
2022-11-14T01:33:06.502Z,53.05
2022-11-14T01:36:11.351Z,53.25
2022-11-14T01:39:16.393Z,53.36
2022-11-14T01:42:24.515Z,53.31
2022-11-14T01:45:50.756Z,53.38
2022-11-14T01:49:10.732Z,53.59
2022-11-14T01:52:27.435Z,53.36
2022-11-14T01:55:32.377Z,53.30
2022-11-14T01:58:40.156Z,53.53
2022-11-14T02:01:50.530Z,53.29
2022-11-14T02:05:09.339Z,53.57
2022-11-14T02:08:14.877Z,53.48
2022-11-14T02:11:19.675Z,53.40
2022-11-14T02:14:24.253Z,53.40
2022-11-14T02:17:30.858Z,53.82
2022-11-14T02:20:43.366Z,53.83
2022-11-14T02:23:48.505Z,53.82
2022-11-14T02:26:53.542Z,53.34
2022-11-14T02:30:11.832Z,53.72
2022-11-14T02:33:17.589Z,53.45
2022-11-14T02:36:22.359Z,53.71
2022-11-14T02:39:27.371Z,53.63
2022-11-14T02:42:32.641Z,54.02
2022-11-14T02:45:37.843Z,54.03
2022-11-14T02:48:42.782Z,54.05
2022-11-14T02:51:47.347Z,54.04
2022-11-14T02:54:54.581Z,54.01
2022-11-14T02:57:59.434Z,54.03
2022-11-14T03:01:20.199Z,53.94
2022-11-14T03:04:26.372Z,54.01
2022-11-14T03:07:32.741Z,53.59
2022-11-14T03:10:37.800Z,53.66
2022-11-14T03:13:42.724Z,54.03
2022-11-14T03:16:47.278Z,53.57
2022-11-14T03:19:51.882Z,53.83
2022-11-14T03:22:56.863Z,54.04
2022-11-14T03:26:02.962Z,53.78
2022-11-14T03:29:08.030Z,54.14
2022-11-14T03:32:12.686Z,53.99
2022-11-14T03:35:17.382Z,53.79
2022-11-14T03:38:24.667Z,53.61
2022-11-14T03:41:29.227Z,54.18
2022-11-14T03:44:34.120Z,53.93
2022-11-14T03:47:38.997Z,53.64
2022-11-14T03:50:43.947Z,54.00
2022-11-14T03:53:48.510Z,53.31
2022-11-14T03:56:53.254Z,53.89
2022-11-14T03:59:57.839Z,53.65
2022-11-14T04:03:02.743Z,54.04
2022-11-14T04:06:07.699Z,53.45
2022-11-14T04:09:12.690Z,54.05
2022-11-14T04:12:17.674Z,53.95
2022-11-14T04:15:22.303Z,54.22
2022-11-14T04:18:27.868Z,53.96
2022-11-14T04:21:33.052Z,53.80
2022-11-14T04:24:37.791Z,53.80
2022-11-14T04:27:43.497Z,53.80
2022-11-14T04:30:48.418Z,54.36
2022-11-14T04:33:53.222Z,54.11
2022-11-14T04:36:57.758Z,54.02
2022-11-14T04:40:02.944Z,54.01
2022-11-14T04:43:07.936Z,54.37
2022-11-14T04:46:12.804Z,54.14
2022-11-14T04:49:17.567Z,54.60
2022-11-14T04:52:23.023Z,54.62
2022-11-14T04:55:27.776Z,54.62
2022-11-14T04:58:33.263Z,54.69
2022-11-14T05:01:38.418Z,54.87
2022-11-14T05:04:44.525Z,54.51
2022-11-14T05:07:49.511Z,54.72
2022-11-14T05:10:54.099Z,54.90
2022-11-14T05:13:58.621Z,55.00
2022-11-14T05:17:03.437Z,54.93
2022-11-14T05:20:08.748Z,54.92
2022-11-14T05:23:21.688Z,54.63
2022-11-14T05:26:26.424Z,55.03
2022-11-14T05:29:31.236Z,54.87
2022-11-14T05:32:36.030Z,55.04
2022-11-14T05:35:40.815Z,55.37
2022-11-14T05:38:45.702Z,54.89
2022-11-14T05:41:50.357Z,54.88
2022-11-14T05:44:54.802Z,55.38
2022-11-14T05:47:59.699Z,54.99
2022-11-14T05:51:06.229Z,55.60
2022-11-14T05:54:10.773Z,55.25
2022-11-14T05:57:15.889Z,54.89
2022-11-14T06:00:20.707Z,55.28
2022-11-14T06:03:25.510Z,55.42
2022-11-14T06:06:30.276Z,55.52
2022-11-14T06:09:35.337Z,55.19
2022-11-14T06:12:40.712Z,55.30
2022-11-14T06:15:45.626Z,55.87
2022-11-14T06:18:53.289Z,55.10
2022-11-14T06:21:57.973Z,55.85
2022-11-14T06:25:03.229Z,55.57
2022-11-14T06:28:07.679Z,55.49
2022-11-14T06:31:13.262Z,55.21
2022-11-14T06:34:17.813Z,55.63
2022-11-14T06:37:22.835Z,55.52
2022-11-14T06:40:27.786Z,56.20
2022-11-14T06:43:37.118Z,55.83
2022-11-14T06:46:41.606Z,55.78
2022-11-14T06:49:46.230Z,55.83
2022-11-14T06:52:50.877Z,56.02
2022-11-14T06:55:58.041Z,55.54
2022-11-14T06:59:03.622Z,56.19
2022-11-14T07:02:15.392Z,55.93
2022-11-14T07:05:22.340Z,55.97
2022-11-14T07:08:27.393Z,56.13
2022-11-14T07:11:32.230Z,55.94
2022-11-14T07:14:37.231Z,56.59
2022-11-14T07:17:42.033Z,56.34
2022-11-14T07:20:47.549Z,56.50
2022-11-14T07:23:52.340Z,56.01
2022-11-14T07:26:56.926Z,55.99
2022-11-14T07:30:01.833Z,55.80
2022-11-14T07:33:06.764Z,56.30
2022-11-14T07:36:13.876Z,56.37
2022-11-14T07:39:18.626Z,56.28
2022-11-14T07:42:23.314Z,55.96
2022-11-14T07:45:29.024Z,56.24
2022-11-14T07:48:34.779Z,55.89
2022-11-14T07:51:39.584Z,56.14
2022-11-14T07:54:44.692Z,56.27
2022-11-14T07:57:53.292Z,55.88
2022-11-14T08:01:02.902Z,55.87
2022-11-14T08:04:07.819Z,56.38
2022-11-14T08:07:12.837Z,56.11
2022-11-14T08:10:18.226Z,56.18
2022-11-14T08:13:32.237Z,56.34
2022-11-14T08:16:37.948Z,56.06
2022-11-14T08:19:42.988Z,56.64
2022-11-14T08:22:47.964Z,56.13
2022-11-14T08:25:53.104Z,56.18
2022-11-14T08:28:57.931Z,56.31
2022-11-14T08:32:02.778Z,56.18
2022-11-14T08:35:07.926Z,56.48
2022-11-14T08:38:12.768Z,56.63
2022-11-14T08:41:18.204Z,56.34
2022-11-14T08:44:23.499Z,56.37
2022-11-14T08:47:28.007Z,56.50
2022-11-14T08:50:32.735Z,56.15
2022-11-14T08:53:37.774Z,56.41
2022-11-14T08:56:42.504Z,56.12
2022-11-14T08:59:47.533Z,56.40
2022-11-14T09:02:51.930Z,56.27
2022-11-14T09:05:56.512Z,55.65
2022-11-14T09:09:01.379Z,56.35
2022-11-14T09:12:06.417Z,55.92
2022-11-14T09:15:11.950Z,56.19
2022-11-14T09:18:16.404Z,55.70
2022-11-14T09:21:21.300Z,56.17
2022-11-14T09:24:26.287Z,56.14
2022-11-14T09:27:30.817Z,56.12
2022-11-14T09:30:37.215Z,56.35
2022-11-14T09:33:42.021Z,56.27
2022-11-14T09:36:47.241Z,56.23
2022-11-14T09:39:52.010Z,56.24
2022-11-14T09:43:12.583Z,55.86
2022-11-14T09:46:26.263Z,56.20
2022-11-14T09:49:36.288Z,56.05
2022-11-14T09:52:46.244Z,56.04
2022-11-14T09:55:51.034Z,55.99
2022-11-14T09:58:56.574Z,56.15
2022-11-14T10:02:41.294Z,56.05
2022-11-14T10:05:55.196Z,56.08
2022-11-14T10:09:27.446Z,56.66
2022-11-14T10:12:38.005Z,56.51
2022-11-14T10:15:59.526Z,56.36
2022-11-14T10:19:21.049Z,56.21
2022-11-14T10:23:02.545Z,56.63
2022-11-14T10:26:16.236Z,56.28
2022-11-14T10:29:36.804Z,56.32
2022-11-14T10:32:56.720Z,56.44
2022-11-14T10:36:11.961Z,56.64
2022-11-14T10:39:22.339Z,56.30
2022-11-14T10:42:34.877Z,56.55
2022-11-14T10:45:43.830Z,56.62
2022-11-14T10:48:50.688Z,56.29
2022-11-14T10:52:00.260Z,56.36
2022-11-14T10:55:15.301Z,56.30
2022-11-14T10:58:21.042Z,56.24
2022-11-14T11:01:36.648Z,56.16
2022-11-14T11:04:43.376Z,56.21
2022-11-14T11:08:36.168Z,56.16
2022-11-14T11:11:32.855Z,56.60
2022-11-14T11:14:37.641Z,55.82
2022-11-14T11:18:06.380Z,56.20
2022-11-14T11:21:13.191Z,56.27
2022-11-14T11:24:35.069Z,56.30
2022-11-14T11:27:39.426Z,56.17
2022-11-14T11:31:07.696Z,56.08
2022-11-14T11:34:12.422Z,56.33
2022-11-14T11:37:40.352Z,56.09
2022-11-14T11:40:48.546Z,56.04
2022-11-14T11:44:00.826Z,55.40
2022-11-14T11:47:10.220Z,55.95
2022-11-14T11:50:17.131Z,55.66
2022-11-14T11:53:41.099Z,55.68
2022-11-14T11:56:48.352Z,55.52
2022-11-14T11:59:59.541Z,55.78
2022-11-14T12:03:05.680Z,55.83
2022-11-14T12:06:10.827Z,55.41
2022-11-14T12:09:21.949Z,55.23
2022-11-14T12:12:36.258Z,55.02
2022-11-14T12:15:52.967Z,55.13
2022-11-14T12:19:31.518Z,55.17
2022-11-14T12:22:46.202Z,55.28
2022-11-14T12:26:15.301Z,55.08
2022-11-14T12:29:35.908Z,54.72
2022-11-14T12:32:53.884Z,54.80
2022-11-14T12:36:00.824Z,54.68
2022-11-14T12:39:05.704Z,54.56
2022-11-14T12:42:15.784Z,54.39
2022-11-14T12:45:42.426Z,54.60
2022-11-14T12:48:47.206Z,54.40
2022-11-14T12:51:51.940Z,54.08
2022-11-14T12:54:56.342Z,53.99
2022-11-14T12:58:01.033Z,53.84
2022-11-14T13:01:20.682Z,53.60
2022-11-14T13:04:34.661Z,53.48
2022-11-14T13:07:51.567Z,53.31
2022-11-14T13:10:56.209Z,53.14
2022-11-14T13:14:20.665Z,52.91
2022-11-14T13:17:45.463Z,53.18
2022-11-14T13:21:24.132Z,54.88
2022-11-14T13:25:03.304Z,51.60
2022-11-14T13:28:36.509Z,46.27
2022-11-14T13:31:49.541Z,43.50
2022-11-14T13:34:59.865Z,42.66
2022-11-14T13:38:25.426Z,43.73
2022-11-14T13:41:46.627Z,44.28
2022-11-14T13:45:11.825Z,44.82
2022-11-14T13:48:37.233Z,45.99
2022-11-14T13:51:43.952Z,46.42
2022-11-14T13:54:49.866Z,47.12
2022-11-14T13:58:25.428Z,47.62
2022-11-14T14:01:30.390Z,47.96
2022-11-14T14:04:53.662Z,48.34
2022-11-14T14:08:19.719Z,48.30
2022-11-14T14:11:46.197Z,48.97
2022-11-14T14:14:51.203Z,49.24
2022-11-14T14:18:18.413Z,49.09
2022-11-14T14:21:57.205Z,49.49
2022-11-14T14:25:14.592Z,49.67
2022-11-14T14:28:30.572Z,49.99
2022-11-14T14:31:39.819Z,49.75
2022-11-14T14:34:44.968Z,50.00
2022-11-14T14:37:54.132Z,50.13
2022-11-14T14:40:58.726Z,50.08
2022-11-14T14:44:03.312Z,50.37
2022-11-14T14:47:29.929Z,50.53
2022-11-14T14:50:49.234Z,50.43
2022-11-14T14:53:54.122Z,50.32
2022-11-14T14:57:02.889Z,50.67
2022-11-14T15:00:18.306Z,50.65
2022-11-14T15:03:23.729Z,50.85
2022-11-14T15:06:32.400Z,50.74
2022-11-14T15:09:37.095Z,50.93
2022-11-14T15:12:42.496Z,50.66
2022-11-14T15:15:47.039Z,50.69
2022-11-14T15:18:55.809Z,50.66
2022-11-14T15:22:21.263Z,50.69
2022-11-14T15:25:27.145Z,50.45
2022-11-14T15:28:32.400Z,50.71
2022-11-14T15:31:37.545Z,50.92
2022-11-14T15:34:42.275Z,51.11
2022-11-14T15:41:36.396Z,51.08
2022-11-14T15:44:43.554Z,51.18
2022-11-14T15:47:50.769Z,50.94
2022-11-14T15:50:56.065Z,50.96
2022-11-14T15:54:01.067Z,50.98
2022-11-14T15:57:14.618Z,51.16
2022-11-14T16:00:19.964Z,50.87
2022-11-14T16:03:25.208Z,51.07
2022-11-14T16:06:31.465Z,51.21
2022-11-14T16:09:36.711Z,51.03
2022-11-14T16:12:41.712Z,51.06
2022-11-14T16:15:46.815Z,51.25
2022-11-14T16:18:52.777Z,51.09
2022-11-14T16:22:02.596Z,51.08
2022-11-14T16:25:17.091Z,50.90
2022-11-14T16:28:21.867Z,51.23
2022-11-14T16:31:26.913Z,51.08
2022-11-14T16:34:32.107Z,51.18
2022-11-14T16:37:36.865Z,51.27
2022-11-14T16:40:44.451Z,51.32
2022-11-14T16:43:49.023Z,51.59
2022-11-14T16:46:53.736Z,51.46
2022-11-14T16:50:01.332Z,51.47
2022-11-14T16:53:06.227Z,51.60
2022-11-14T16:56:12.763Z,51.54
2022-11-14T16:59:17.602Z,51.71
2022-11-14T17:02:22.691Z,51.72
2022-11-14T17:05:28.107Z,51.45
2022-11-14T17:08:33.225Z,51.79
2022-11-14T17:11:38.895Z,52.04
2022-11-14T17:14:44.076Z,51.63
2022-11-14T17:17:50.306Z,51.74
2022-11-14T17:20:55.317Z,51.95
2022-11-14T17:24:03.992Z,51.90
2022-11-14T17:27:09.364Z,52.14
2022-11-14T17:30:14.484Z,52.34
2022-11-14T17:33:19.148Z,52.13
2022-11-14T17:36:26.344Z,52.21
2022-11-14T17:39:31.160Z,52.11
2022-11-14T17:42:35.887Z,52.44
2022-11-14T17:45:41.414Z,52.31
2022-11-14T17:48:46.860Z,52.28
2022-11-14T17:51:51.481Z,52.12
2022-11-14T17:54:56.408Z,52.39
2022-11-14T17:58:01.271Z,52.15
2022-11-14T18:01:13.061Z,52.15
2022-11-14T18:04:18.235Z,52.53
2022-11-14T18:07:22.931Z,52.39
2022-11-14T18:10:28.040Z,52.50
2022-11-14T18:13:33.560Z,52.28
2022-11-14T18:17:05.343Z,52.67
2022-11-14T18:20:03.380Z,52.32
2022-11-14T18:23:08.084Z,52.19
2022-11-14T18:26:16.989Z,52.81
2022-11-14T18:29:22.040Z,52.46
2022-11-14T18:32:26.876Z,52.41
2022-11-14T18:35:31.706Z,52.60
2022-11-14T18:38:36.513Z,52.48
2022-11-14T18:41:41.752Z,52.85
2022-11-14T18:44:46.424Z,52.84
2022-11-14T18:47:51.325Z,52.57
2022-11-14T18:51:04.728Z,52.69
2022-11-14T18:54:14.424Z,52.82
2022-11-14T18:57:18.956Z,52.84
2022-11-14T19:00:23.832Z,52.99
2022-11-14T19:03:29.882Z,52.95
2022-11-14T19:06:36.977Z,52.94
2022-11-14T19:09:41.469Z,53.02
2022-11-14T19:12:49.314Z,53.13
2022-11-14T19:15:54.104Z,52.99
2022-11-14T19:18:59.306Z,53.02
2022-11-14T19:22:04.179Z,53.11
2022-11-14T19:25:09.362Z,53.09
2022-11-14T19:28:13.815Z,53.11
2022-11-14T19:31:19.671Z,53.13
2022-11-14T19:34:24.887Z,53.10
2022-11-14T19:37:29.428Z,53.26
2022-11-14T19:40:34.083Z,53.25
2022-11-14T19:43:39.856Z,53.24
2022-11-14T19:46:47.769Z,53.52
2022-11-14T19:49:53.445Z,53.45
2022-11-14T19:52:58.042Z,53.37
2022-11-14T19:56:14.273Z,53.60
2022-11-14T19:59:23.080Z,53.73
2022-11-14T20:02:29.552Z,53.66
2022-11-14T20:05:34.154Z,53.67
2022-11-14T20:08:38.721Z,53.65
2022-11-14T20:11:43.680Z,53.58
2022-11-14T20:14:48.610Z,54.00
2022-11-14T20:17:53.673Z,53.48
2022-11-14T20:21:03.111Z,53.78
2022-11-14T20:24:11.187Z,53.76
2022-11-14T20:27:15.977Z,53.72
2022-11-14T20:30:21.055Z,53.83
2022-11-14T20:33:26.320Z,53.55
2022-11-14T20:36:49.922Z,53.60
2022-11-14T20:39:55.874Z,53.89
2022-11-14T20:43:00.891Z,53.70
2022-11-14T20:46:08.044Z,53.77
2022-11-14T20:49:12.962Z,53.66
2022-11-14T20:52:18.774Z,53.90
2022-11-14T20:55:23.622Z,53.92
2022-11-14T20:58:28.692Z,54.40
2022-11-14T21:01:34.650Z,54.44
2022-11-14T21:04:41.374Z,54.35
2022-11-14T21:07:46.027Z,53.96
2022-11-14T21:10:58.566Z,54.15
2022-11-14T21:14:04.645Z,54.30
2022-11-14T21:17:09.458Z,54.35
2022-11-14T21:20:14.480Z,54.58
2022-11-14T21:23:19.603Z,54.16
2022-11-14T21:26:31.992Z,54.21
2022-11-14T21:29:36.819Z,54.46
2022-11-14T21:32:41.607Z,54.40
2022-11-14T21:35:46.703Z,54.73
2022-11-14T21:38:51.662Z,54.32
2022-11-14T21:41:55.999Z,54.48
2022-11-14T21:45:00.733Z,54.32
2022-11-14T21:48:05.556Z,54.37
2022-11-14T21:51:18.692Z,54.54
2022-11-14T21:54:23.037Z,54.41
2022-11-14T21:57:27.931Z,54.14
2022-11-14T22:00:32.453Z,54.39
2022-11-14T22:03:56.370Z,54.28
2022-11-14T22:07:06.586Z,54.31
2022-11-14T22:10:11.529Z,54.46
2022-11-14T22:13:16.403Z,54.43
2022-11-14T22:16:21.070Z,54.54
2022-11-14T22:19:25.377Z,54.79
2022-11-14T22:22:29.978Z,54.15
2022-11-14T22:25:34.863Z,54.38
2022-11-14T22:28:40.125Z,54.67
2022-11-14T22:31:45.249Z,54.82
2022-11-14T22:34:49.726Z,54.52
2022-11-14T22:37:54.391Z,54.60
2022-11-14T22:40:59.753Z,54.67
2022-11-14T22:44:04.717Z,54.80
2022-11-14T22:47:09.320Z,54.75
2022-11-14T22:50:14.351Z,54.70
2022-11-14T22:53:18.693Z,54.71
2022-11-14T22:56:28.436Z,54.68
2022-11-14T22:59:33.525Z,54.57
2022-11-14T23:02:38.194Z,55.00
2022-11-14T23:05:42.935Z,54.80
2022-11-14T23:08:47.870Z,54.66
2022-11-14T23:11:52.776Z,54.65
2022-11-14T23:14:57.630Z,54.93
2022-11-14T23:18:02.327Z,54.90
2022-11-14T23:21:24.871Z,54.97
2022-11-14T23:24:29.604Z,55.06
2022-11-14T23:27:34.301Z,54.58
2022-11-14T23:30:39.220Z,55.12
2022-11-14T23:33:44.259Z,54.43
2022-11-14T23:36:48.974Z,54.76
2022-11-14T23:39:53.537Z,54.91
2022-11-14T23:42:58.225Z,54.80
2022-11-14T23:46:02.908Z,54.96
2022-11-14T23:49:07.711Z,55.43
2022-11-14T23:52:12.606Z,54.82
2022-11-14T23:55:17.344Z,55.21
2022-11-14T23:58:23.009Z,55.18
